Tiempo atmosférico en la estación meteorológica de Espolla, Girona (94 m.)



Fecha
DESCASC
Temp. máxima en grados centígrados (hora)
DESCASC
Temp. mínima en grados centígrados (hora)
DESCASC
Temp. media en grados centígrados
DESCASC
Racha de viento máxima en m/sg (hora)
DESCASC
Velocidad máxima media en intervalos de 10 minutos(hora)
DESCASC
Precipitaciones diarias en mm
DESCASC
Precipitaciones de 00:00 a 06:00 en mm
DESCASC
Precipitaciones de 06:00 a 12:00 en mm
DESCASC
Precipitaciones de 12:00 a 18:00 en mm
DESCASC
Precipitaciones de 18:00 a 24:00 en mm
DESCASC
06-07-2020 30 (16:50) 23 (23:30) 26.5 18.61 (17:20) 10.28 (17:40) 0 0 0 0 0
05-07-2020 33.2 (14:50) 16.9 (05:00) 25.1 14.17 (21:40) 7.78 (22:30) 0 0 0 0 0
04-07-2020 29.7 (16:50) 18.5 (06:50) 24.1 16.94 (00:40) 8.33 (04:20) 0 0 0 0 0
03-07-2020 25.6 (16:50) 17.7 (02:40) 21.7 20.28 (07:10) 10.28 (07:20) 2.4 2 0.4 0 0
02-07-2020 30 (14:20) 19.6 (00:00) 24.8 19.44 (16:40) 9.17 (21:40) 15.6 0 3.6 11.4 0.6
01-07-2020 30.7 (17:20) 21 (00:00) 25.9 8.06 (18:20) 3.89 (12:50) 0 0 0 0 0
30-06-2020 28.2 (14:00) 20.9 (00:00) 24.6 7.5 (14:30) 4.17 (14:40) 0 0 0 0 0
29-06-2020 27.5 (12:00) 19.9 (00:00) 23.7 5 (12:40) 3.33 (15:10) 0 0 0 0 0
28-06-2020 30.2 (12:50) 18.7 (00:00) 24.5 9.44 (13:30) 4.72 (14:50) 0 0 0 0 0
27-06-2020 28.7 (16:00) 18.3 (00:00) 23.5 9.72 (15:00) 6.11 (15:10) 0 0 0 0 0
26-06-2020 30 (15:40) 18.8 (00:00) 24.4 11.11 (16:10) 7.22 (17:10) 0 0 0 0 0
25-06-2020 28.7 (15:30) 17.9 (00:00) 23.3 7.5 (13:20) 3.89 (15:40) 0 0 0 0 0
24-06-2020 29.1 (13:50) 17.1 (00:00) 23.1 11.67 (13:10) 6.39 (17:30) 0 0 0 0 0
23-06-2020 28.8 (13:10) 17.9 (00:00) 23.3 10.28 (00:20) 5.83 (00:40) 0 0 0 0 0
22-06-2020 29.3 (17:00) 22.5 (00:00) 25.9 20.83 (06:40) 10.83 (07:00) 0 0 0 0 0
21-06-2020 30.1 (17:00) 19.1 (00:00) 24.6 17.78 (23:40) 7.5 (23:40) 0 0 0 0 0
20-06-2020 27.2 (14:20) 15 (00:00) 21.1 8.06 (15:10) 5.28 (15:10) 0 0 0 0 0
19-06-2020 24.7 (14:20) 11.9 (00:00) 18.3 6.94 (14:00) 3.61 (14:00) 0 0 0 0 0
18-06-2020 22.2 (15:40) 12.7 (00:00) 17.5 6.39 (15:40) 3.89 (15:50) 0 0 0 0 0
17-06-2020 21.9 (13:50) 15.3 (00:00) 18.6 9.72 (03:20) 4.72 (03:10) 6.8 0 0 6.6 0.2
16-06-2020 21.6 (14:30) 17.2 (00:00) 19.4 11.11 (01:40) 5.83 (01:40) 1.4 0 1.4 0 0
15-06-2020 25.9 (14:10) 18.3 (00:00) 22.1 14.44 (04:10) 7.5 (03:00) 0 0 0 0 0
14-06-2020 26.1 (13:50) 17.2 (00:00) 21.7 9.72 (02:10) 5.28 (02:00) 0 0 0 0 0
13-06-2020 24.6 (15:50) 12 (00:00) 18.3 11.39 (20:10) 5.83 (22:40) 0 0 0 0 0
12-06-2020 27 (15:30) 15.9 (00:00) 21.4 13.33 (16:20) 8.06 (18:00) 0 0 0 0 0
11-06-2020 22.1 (14:40) 13 (00:00) 17.6 11.67 (16:50) 7.78 (17:20) 2.6 2.4 0.2 0 0
10-06-2020 23.6 (13:10) 15.4 (00:00) 19.5 12.22 (01:00) 6.67 (00:50) 0.4 0 0 0 0.4
09-06-2020 22.1 (16:00) 15.6 (00:00) 18.9 16.67 (08:20) 8.33 (09:10) 0 0 0 0 0

Gráficas

Temp. máximas Temp. mínimas Temp. medias Precipitaciones Rachas de viento máximas Velocidades máximas media en intervalos de 10 minutos

Datos horarios

Fecha y hora oficial Temperatura (ºC) Velocidad del viento (km/h) Dirección del viento Racha (km/h) Dirección de racha Precipitación (mm) Presión (hPa) Tendencia (hPa) Humedad (%)
2020-07-08 23:00:00 20.1 3 Norte 12 Nordeste 0 -- -- 59
2020-07-08 22:00:00 21.3 2 Nordeste 9 Nordeste 0 -- -- 55
2020-07-08 21:00:00 24.8 3 Sudoeste 10 Sudeste 0 -- -- 46
2020-07-08 20:00:00 26.1 6 Sur 14 Sur 0 -- -- 38
2020-07-08 19:00:00 27.5 9 Sur 18 Sur 0 -- -- 39
2020-07-08 18:00:00 28.4 12 Sur 19 Sur 0 -- -- 35
2020-07-08 17:00:00 28.9 14 Sur 23 Sudoeste 0 -- -- 35
2020-07-08 16:00:00 30 12 Sur 26 Sur 0 -- -- 35
2020-07-08 15:00:00 30.4 12 Sur 28 Sur 0 -- -- 35
2020-07-08 14:00:00 30 10 Sur 23 Sudoeste 0 -- -- 35
2020-07-08 13:00:00 29.4 8 Sudoeste 19 Sudoeste 0 -- -- 35
2020-07-08 12:00:00 28.7 12 Oeste 20 Oeste 0 -- -- 36
2020-07-08 11:00:00 27.8 7 Sudoeste 15 Sudoeste 0 -- -- 35
2020-07-08 10:00:00 26.1 6 Sudoeste 12 Sudoeste 0 -- -- 38
2020-07-08 09:00:00 24.3 5 Oeste 8 Sudoeste 0 -- -- 41
2020-07-08 08:00:00 21.5 3 Nordeste 8 Nordeste 0 -- -- 52
2020-07-08 07:00:00 16.8 6 Nordeste 9 Nordeste 0 -- -- 61
2020-07-08 06:00:00 16.9 7 Nordeste 10 Nordeste 0 -- -- 57
2020-07-08 05:00:00 16.3 4 Norte 8 Norte 0 -- -- 63
2020-07-08 04:00:00 17.5 5 Nordeste 11 Norte 0 -- -- 58
2020-07-08 03:00:00 17.2 5 Norte 11 Norte 0 -- -- 59
2020-07-08 02:00:00 18.3 3 Norte 10 Este 0 -- -- 54
2020-07-08 01:00:00 20.6 6 Este 18 Norte 0 -- -- 47
2020-07-08 00:00:00 24.1 13 Norte 28 Noroeste 0 -- -- 38
2020-07-07 23:00:00 23.6 7 Norte 28 Norte 0 -- -- 39
2020-07-07 22:00:00 24.7 5 Sudoeste 27 Nordeste 0 -- -- 38
2020-07-07 21:00:00 26.5 6 Nordeste 29 Norte 0 -- -- 33
2020-07-07 20:00:00 28.5 13 Norte 32 Noroeste 0 -- -- 29
2020-07-07 19:00:00 30 14 Norte 37 Nordeste 0 -- -- 25
2020-07-07 18:00:00 30.8 17 Norte 36 Norte 0 -- -- 25
2020-07-07 17:00:00 30.7 21 Norte 34 Norte 0 -- -- 25
2020-07-07 16:00:00 31.2 17 Norte 38 Norte 0 -- -- 25
2020-07-07 15:00:00 30.8 14 Noroeste 36 Norte 0 -- -- 23
2020-07-07 14:00:00 30 8 Nordeste 32 Norte 0 -- -- 23
2020-07-07 13:00:00 29 15 Norte 52 Noroeste 0 -- -- 25
2020-07-07 12:00:00 27.8 15 Norte 48 Norte 0 -- -- 28
2020-07-07 11:00:00 26.1 26 Noroeste 42 Noroeste 0 -- -- 33
2020-07-07 10:00:00 24.9 13 Noroeste 27 Noroeste 0 -- -- 37
2020-07-07 09:00:00 23 12 Noroeste 39 Noroeste 0 -- -- 42
2020-07-07 08:00:00 21.9 5 Sur 18 Sudeste 0 -- -- 46
2020-07-07 07:00:00 20 9 Sudoeste 25 Sur 0 -- -- 50
2020-07-07 06:00:00 20.1 13 Noroeste 34 Oeste 0 -- -- 52
2020-07-07 05:00:00 20.5 10 Sudeste 58 Nordeste 0 -- -- 53
2020-07-07 04:00:00 21.4 29 Norte 69 Norte 0 -- -- 51
2020-07-07 03:00:00 22 31 Norte 67 Norte 0 -- -- 51
2020-07-07 02:00:00 22.2 26 Norte 54 Norte 0 -- -- 52
2020-07-07 01:00:00 22.7 13 Norte 44 Norte 0 -- -- 52
2020-07-07 00:00:00 23.1 14 Noroeste 32 Noroeste 0 -- -- 52
2020-07-06 23:00:00 23.6 10 Este 51 Noroeste 0 -- -- 54
2020-07-06 22:00:00 24.4 12 Norte 48 Noroeste 0 -- -- 52
2020-07-06 21:00:00 25.4 18 Norte 55 Norte 0 -- -- 51
2020-07-06 20:00:00 26.6 26 Norte 54 Norte 0 -- -- 49
2020-07-06 19:00:00 27.9 26 Norte 57 Noroeste 0 -- -- 46
2020-07-06 18:00:00 28.3 34 Norte 67 Norte 0 -- -- 48
2020-07-06 17:00:00 29.6 24 Norte 58 Noroeste 0 -- -- 45
2020-07-06 16:00:00 29.1 27 Noroeste 61 Noroeste 0 -- -- 47
2020-07-06 15:00:00 29.6 24 Noroeste 52 Noroeste 0 -- -- 47
2020-07-06 14:00:00 29.1 14 Norte 35 Noroeste 0 -- -- 48
2020-07-06 13:00:00 28.6 13 Noroeste 39 Noroeste 0 -- -- 48
2020-07-06 12:00:00 29.1 16 Norte 57 Norte 0 -- -- 45
2020-07-06 11:00:00 27.8 33 Noroeste 53 Noroeste 0 -- -- 49
2020-07-06 10:00:00 27 23 Norte 53 Norte 0 -- -- 51
2020-07-06 09:00:00 26.8 13 Noroeste 41 Norte 0 -- -- 53
2020-07-06 08:00:00 25.9 10 Sudeste 23 Este 0 -- -- 55
2020-07-06 07:00:00 24 7 Sudoeste 26 Noroeste 0 -- -- 60
2020-07-06 06:00:00 24.6 11 Oeste 30 Noroeste 0 -- -- 58
2020-07-06 05:00:00 25.4 7 Noroeste 32 Noroeste 0 -- -- 53
2020-07-06 04:00:00 25.9 10 Sudoeste 46 Norte 0 -- -- 52
2020-07-06 03:00:00 26.1 12 Noroeste 52 Nordeste 0 -- -- 52
2020-07-06 02:00:00 26 12 Oeste 38 Oeste 0 -- -- 53
2020-07-06 01:00:00 26.8 18 Noroeste 51 Norte 0 -- -- 50
2020-07-06 00:00:00 27.2 23 Norte 47 Norte 0 -- -- 50
2020-07-05 23:00:00 27.6 24 Norte 48 Norte 0 -- -- 48
2020-07-05 22:00:00 28.2 22 Norte 51 Norte 0 -- -- 47
2020-07-05 21:00:00 29.2 11 Norte 32 Norte 0 -- -- 44
2020-07-05 20:00:00 29.4 8 Sudoeste 19 Sudoeste 0 -- -- 53
2020-07-05 19:00:00 29.7 11 Sur 21 Sur 0 -- -- 51
2020-07-05 18:00:00 30.5 10 Sur 23 Sur 0 -- -- 46
2020-07-05 17:00:00 30.5 12 Sur 21 Sur 0 -- -- 45
2020-07-05 16:00:00 31.2 10 Sur 23 Sur 0 -- -- 46
2020-07-05 15:00:00 32.4 15 Sur 30 Oeste 0 -- -- 42
2020-07-05 14:00:00 32.2 18 Noroeste 35 Noroeste 0 -- -- 36
2020-07-05 13:00:00 31.8 12 Noroeste 23 Noroeste 0 -- -- 35
2020-07-05 12:00:00 30.9 14 Noroeste 26 Noroeste 0 -- -- 36
2020-07-05 11:00:00 28.9 14 Noroeste 28 Oeste 0 -- -- 39
2020-07-05 10:00:00 27.2 17 Oeste 27 Noroeste 0 -- -- 41
2020-07-05 09:00:00 26.9 12 Noroeste 32 Noroeste 0 -- -- 41
2020-07-05 08:00:00 24.5 15 Noroeste 23 Noroeste 0 -- -- 43
2020-07-05 07:00:00 21.2 4 Norte 27 Noroeste 0 -- -- 54
2020-07-05 06:00:00 22.7 11 Noroeste 36 Noroeste 0 -- -- 47
2020-07-05 05:00:00 16.9 3 Norte 10 Norte 0 -- -- 73
2020-07-05 04:00:00 18.2 3 Noroeste 10 Nordeste 0 -- -- 69
2020-07-05 03:00:00 19.7 7 Norte 14 Norte 0 -- -- 62
2020-07-05 02:00:00 19 5 Sur 12 Oeste 0 -- -- 69
2020-07-05 01:00:00 21.3 15 Oeste 23 Noroeste 0 -- -- 61
2020-07-05 00:00:00 23.6 17 Noroeste 37 Noroeste 0 -- -- 50
2020-07-04 23:00:00 23.5 14 Norte 31 Norte 0 -- -- 51
2020-07-04 22:00:00 23.7 10 Norte 18 Noroeste 0 -- -- 49
2020-07-04 21:00:00 24.4 6 Norte 15 Norte 0 -- -- 52
2020-07-04 20:00:00 25.6 10 Sur 21 Sur 0 -- -- 49
2020-07-04 19:00:00 26.9 10 Sur 26 Noroeste 0 -- -- 48
2020-07-04 18:00:00 29.5 12 Noroeste 27 Nordeste 0 -- -- 36
2020-07-04 17:00:00 29.6 16 Norte 33 Norte 0 -- -- 38
2020-07-04 16:00:00 29.4 13 Nordeste 41 Noroeste 0 -- -- 35
2020-07-04 15:00:00 28.6 17 Noroeste 36 Noroeste 0 -- -- 35
2020-07-04 14:00:00 27.5 22 Noroeste 33 Noroeste 0 -- -- 35
2020-07-04 13:00:00 26.8 15 Norte 34 Noroeste 0 -- -- 36
2020-07-04 12:00:00 25.3 16 Noroeste 32 Noroeste 0 -- -- 41
2020-07-04 11:00:00 23.7 9 Oeste 30 Nordeste 0 -- -- 43
2020-07-04 10:00:00 22.3 14 Norte 37 Noroeste 0 -- -- 49
2020-07-04 09:00:00 21.1 19 Noroeste 40 Noroeste 0 -- -- 53
2020-07-04 08:00:00 19.7 18 Norte 42 Noroeste 0 -- -- 57
2020-07-04 07:00:00 18.6 18 Norte 37 Norte 0 -- -- 61
2020-07-04 06:00:00 18.9 22 Norte 50 Norte 0 -- -- 58
2020-07-04 05:00:00 19.1 25 Norte 55 Nordeste 0 -- -- 57
2020-07-04 04:00:00 19.6 26 Norte 53 Norte 0 -- -- 55
2020-07-04 03:00:00 19.6 23 Norte 43 Norte 0 -- -- 54
2020-07-04 02:00:00 20.2 14 Norte 46 Norte 0 -- -- 53
2020-07-04 01:00:00 20.6 25 Norte 61 Noroeste 0 -- -- 51
2020-07-04 00:00:00 20.8 26 Norte 61 Norte 0 -- -- 48
2020-07-03 23:00:00 21 26 Norte 66 Norte 0 -- -- 48
2020-07-03 22:00:00 21.1 26 Norte 66 Norte 0 -- -- 51
2020-07-03 21:00:00 21.7 32 Norte 61 Norte 0 -- -- 49
2020-07-03 20:00:00 23 27 Norte 58 Norte 0 -- -- 47
2020-07-03 19:00:00 23 25 Norte 57 Norte 0 -- -- 48
2020-07-03 18:00:00 24 21 Norte 53 Norte 0 -- -- 45
2020-07-03 17:00:00 25.5 22 Norte 49 Norte 0 -- -- 43
2020-07-03 16:00:00 24.1 25 Norte 55 Norte 0 -- -- 48
2020-07-03 15:00:00 23.6 32 Norte 54 Noroeste 0 -- -- 47
2020-07-03 14:00:00 22.6 28 Norte 52 Norte 0 -- -- 47
2020-07-03 13:00:00 21.7 27 Norte 55 Nordeste 0 -- -- 50
2020-07-03 12:00:00 21 26 Norte 56 Norte 0 -- -- 54
2020-07-03 11:00:00 21 24 Norte 64 Norte 0 -- -- 56
2020-07-03 10:00:00 19.9 27 Norte 65 Norte 0 -- -- 59
2020-07-03 09:00:00 20.1 17 Norte 58 Norte 0 -- -- 61
2020-07-03 08:00:00 18.7 27 Norte 73 Norte 0 -- -- 65
2020-07-03 07:00:00 19 36 Norte 67 Norte 0.4 -- -- 63
2020-07-03 06:00:00 18.2 23 Norte 67 Norte 0 -- -- 72
2020-07-03 05:00:00 19.5 35 Norte 68 Norte 0 -- -- 64
2020-07-03 04:00:00 19.2 32 Norte 58 Norte 0.2 -- -- 68
2020-07-03 03:00:00 18.3 21 Norte 53 Norte 1.2 -- -- 76
2020-07-03 02:00:00 18.4 33 Norte 66 Nordeste 0.6 -- -- 77
2020-07-03 01:00:00 21 28 Norte 55 Norte 0 -- -- 63
2020-07-03 00:00:00 21.5 27 Norte 60 Norte 0 -- -- 61
2020-07-02 23:00:00 21.7 32 Norte 65 Norte 0 -- -- 61
2020-07-02 22:00:00 21.4 31 Norte 62 Norte 0.2 -- -- 63
2020-07-02 21:00:00 21.5 32 Norte 63 Noroeste 0 -- -- 67
2020-07-02 20:00:00 20.2 7 Nordeste 30 Norte 0.2 -- -- 81
2020-07-02 19:00:00 20.4 3 Nordeste 10 Nordeste 0.2 -- -- 87
2020-07-02 18:00:00 19.9 7 Sudeste 33 Norte 11.2 -- -- 90
2020-07-02 17:00:00 22.4 21 Norte 70 Noroeste 0.2 -- -- 72
2020-07-02 16:00:00 27.9 8 Nordeste 23 Nordeste 0 -- -- 55
2020-07-02 15:00:00 28 13 Nordeste 21 Norte 0 -- -- 58
2020-07-02 14:00:00 29 9 Norte 16 Noroeste 0 -- -- 57
2020-07-02 13:00:00 28.3 3 Sur 13 Sur 0 -- -- 59
2020-07-02 12:00:00 28 8 Nordeste 21 Este 0 -- -- 60
2020-07-02 11:00:00 26.9 4 Sur 10 Sudeste 0 -- -- 69
2020-07-02 10:00:00 24.1 5 Sudoeste 17 Noroeste 0 -- -- 82
2020-07-02 09:00:00 21.7 8 Norte 19 Este 0.8 -- -- 88
2020-07-02 08:00:00 21.2 5 Sur 33 Nordeste 0.4 -- -- 91
2020-07-02 07:00:00 20.9 7 Norte 19 Nordeste 2.4 -- -- 91
2020-07-02 06:00:00 21.2 8 Nordeste 13 Nordeste 0 -- -- 93
2020-07-02 05:00:00 20.5 0 Calma 7 Oeste 0 -- -- 93
2020-07-02 04:00:00 20.7 5 Norte 12 Nordeste 0 -- -- 93
2020-07-02 03:00:00 20.9 6 Nordeste 9 Nordeste 0 -- -- 92
2020-07-02 02:00:00 21.4 8 Este 12 Nordeste 0 -- -- 89
2020-07-02 01:00:00 22.2 2 Sudeste 8 Norte 0 -- -- 83
2020-07-02 00:00:00 22.7 0 Calma -- -- 0 -- -- 82
2020-07-01 23:00:00 23.4 0 Calma 6 Sudoeste 0 -- -- 81
2020-07-01 22:00:00 24.9 4 Sudoeste 14 Sudoeste 0 -- -- 76
2020-07-01 21:00:00 26.5 5 Sudoeste 10 Sur 0 -- -- 70
2020-07-01 20:00:00 27.4 7 Sudeste 14 Nordeste 0 -- -- 67
2020-07-01 19:00:00 27 7 Nordeste 29 Nordeste 0 -- -- 70
2020-07-01 18:00:00 30.5 8 Sudeste 24 Sur 0 -- -- 50
2020-07-01 17:00:00 30.4 14 Sur 22 Sur 0 -- -- 51
2020-07-01 16:00:00 30.2 12 Sudeste 23 Este 0 -- -- 55
2020-07-01 15:00:00 30.3 14 Sudeste 28 Sudeste 0 -- -- 57
2020-07-01 14:00:00 30.6 11 Sur 23 Sur 0 -- -- 56
2020-07-01 13:00:00 29.8 12 Sudeste 23 Sur 0 -- -- 58
2020-07-01 12:00:00 29.5 9 Sur 16 Sudeste 0 -- -- 57
2020-07-01 11:00:00 28.9 8 Sudoeste 15 Sudoeste 0 -- -- 60
2020-07-01 10:00:00 27 3 Oeste 9 Sur 0 -- -- 69
2020-07-01 09:00:00 25.1 3 Sur 6 Sudoeste 0 -- -- 81
2020-07-01 08:00:00 22.7 0 Calma 10 Este 0 -- -- 91
2020-07-01 07:00:00 21.2 5 Nordeste 17 Norte 0 -- -- 93
2020-07-01 06:00:00 21.3 7 Sudoeste 12 Nordeste 0 -- -- 93
2020-07-01 05:00:00 21.6 8 Sur 22 Norte 0 -- -- 92
2020-07-01 04:00:00 21.4 4 Nordeste 11 Nordeste 0 -- -- 92
2020-07-01 03:00:00 21.2 5 Nordeste 11 Norte 0 -- -- 92
2020-07-01 02:00:00 21.2 0 Calma 9 Nordeste 0 -- -- 91
2020-07-01 01:00:00 21.8 4 Nordeste 13 Nordeste 0 -- -- 89
2020-07-01 00:00:00 22.2 2 Nordeste 6 Norte 0 -- -- 87
2020-06-30 23:00:00 23.7 0 Calma 8 Sudeste 0 -- -- 82
2020-06-30 22:00:00 25.4 5 Este 11 Sur 0 -- -- 77
2020-06-30 21:00:00 26.8 5 Sudoeste 12 Sudoeste 0 -- -- 72
2020-06-30 20:00:00 27.4 5 Sur 15 Sur 0 -- -- 70
2020-06-30 19:00:00 27.9 9 Sur 15 Sur 0 -- -- 68
2020-06-30 18:00:00 27.7 7 Sur 15 Sur 0 -- -- 69
2020-06-30 17:00:00 26.6 8 Sur 24 Sur 0 -- -- 71
2020-06-30 16:00:00 27.2 12 Sur 23 Sur 0 -- -- 67
2020-06-30 15:00:00 27.1 11 Sudeste 27 Sudeste 0 -- -- 68
2020-06-30 14:00:00 28.2 13 Sur 26 Oeste 0 -- -- 61
2020-06-30 13:00:00 26.7 8 Sur 20 Sur 0 -- -- 61
2020-06-30 12:00:00 26.5 10 Sur 20 Sur 0 -- -- 61
2020-06-30 11:00:00 24.9 7 Sur 15 Sudoeste 0 -- -- 63
2020-06-30 10:00:00 24.2 7 Sur 14 Sur 0 -- -- 67
2020-06-30 09:00:00 23.1 6 Sur 10 Sur 0 -- -- 72
2020-06-30 08:00:00 21.7 4 Nordeste 8 Nordeste 0 -- -- 71
2020-06-30 07:00:00 21 0 Calma -- -- 0 -- -- 77
2020-06-30 06:00:00 21.1 0 Calma -- -- 0 -- -- 75
2020-06-30 05:00:00 20.9 0 Calma -- -- 0 -- -- 78
2020-06-30 04:00:00 21 0 Calma -- -- 0 -- -- 79
2020-06-30 03:00:00 21.5 0 Calma -- -- 0 -- -- 78
2020-06-30 02:00:00 21.8 0 Calma 5 Sudoeste 0 -- -- 77
2020-06-30 01:00:00 22.2 4 Nordeste 10 Nordeste 0 -- -- 73
2020-06-30 00:00:00 22.3 6 Nordeste 8 Nordeste 0 -- -- 74
2020-06-29 23:00:00 22.6 2 Este 7 Este 0 -- -- 71
2020-06-29 22:00:00 23.1 0 Calma 6 Sudeste 0 -- -- 69
2020-06-29 21:00:00 23.7 5 Sur 9 Sur 0 -- -- 66
2020-06-29 20:00:00 24.3 0 Calma 10 Este 0 -- -- 64
2020-06-29 19:00:00 24.7 4 Norte 13 Este 0 -- -- 64
2020-06-29 18:00:00 24.8 8 Nordeste 17 Nordeste 0 -- -- 64
2020-06-29 17:00:00 25.4 8 Nordeste 14 Nordeste 0 -- -- 63
2020-06-29 16:00:00 26 4 Sudeste 18 Nordeste 0 -- -- 64
2020-06-29 15:00:00 25.9 8 Nordeste 13 Nordeste 0 -- -- 64
2020-06-29 14:00:00 25.4 10 Nordeste 18 Nordeste 0 -- -- 64
2020-06-29 13:00:00 26.1 9 Sur 18 Sudoeste 0 -- -- 66
2020-06-29 12:00:00 27.5 9 Sudoeste 17 Sur 0 -- -- 62
2020-06-29 11:00:00 26.6 5 Sur 13 Sudoeste 0 -- -- 65
2020-06-29 10:00:00 25.5 6 Sudoeste 10 Sudoeste 0 -- -- 69
2020-06-29 09:00:00 23.9 0 Calma -- -- 0 -- -- 74
2020-06-29 08:00:00 22.2 0 Calma -- -- 0 -- -- 80
2020-06-29 07:00:00 20.8 0 Calma -- -- 0 -- -- 84
2020-06-29 06:00:00 20 0 Calma 4 Nordeste 0 -- -- 85
2020-06-29 05:00:00 20.8 0 Calma 13 Nordeste 0 -- -- 80
2020-06-29 04:00:00 20.8 9 Nordeste 11 Nordeste 0 -- -- 81
2020-06-29 03:00:00 20.1 0 Calma 7 Norte 0 -- -- 84
2020-06-29 02:00:00 20.7 0 Calma 8 Norte 0 -- -- 81
2020-06-29 01:00:00 21.4 3 Nordeste 8 Nordeste 0 -- -- 79
2020-06-29 00:00:00 21.7 4 Nordeste 8 Norte 0 -- -- 77
2020-06-28 23:00:00 22.9 3 Nordeste 7 Nordeste 0 -- -- 74
2020-06-28 22:00:00 24.7 2 Este 7 Norte 0 -- -- 67
2020-06-28 21:00:00 26.4 0 Calma 8 Sur 0 -- -- 57
2020-06-28 20:00:00 27.1 6 Sudoeste 16 Sur 0 -- -- 60
2020-06-28 19:00:00 27.7 8 Sudeste 15 Sur 0 -- -- 59
2020-06-28 18:00:00 27.5 10 Sur 21 Sur 0 -- -- 59
2020-06-28 17:00:00 27.1 10 Sur 23 Sur 0 -- -- 68
2020-06-28 16:00:00 27.1 13 Sur 20 Sur 0 -- -- 67
2020-06-28 15:00:00 28.1 16 Sur 25 Sur 0 -- -- 62
2020-06-28 14:00:00 29.8 12 Sur 34 Sur 0 -- -- 55
2020-06-28 13:00:00 30.1 15 Sur 27 Sudoeste 0 -- -- 56
2020-06-28 12:00:00 29.5 6 Sudoeste 14 Sudoeste 0 -- -- 55
2020-06-28 11:00:00 27.9 4 Este 10 Este 0 -- -- 60
2020-06-28 10:00:00 26.6 6 Sudoeste 10 Sudoeste 0 -- -- 67
2020-06-28 09:00:00 25.2 2 Sur 5 Sur 0 -- -- 72
2020-06-28 08:00:00 22.9 0 Calma 9 Nordeste 0 -- -- 82
2020-06-28 07:00:00 20.4 6 Nordeste 9 Nordeste 0 -- -- 89
2020-06-28 06:00:00 19.5 3 Nordeste 13 Nordeste 0 -- -- 90
2020-06-28 05:00:00 18.7 0 Calma 6 Nordeste 0 -- -- 92
2020-06-28 04:00:00 18.9 2 Norte 8 Norte 0 -- -- 91
2020-06-28 03:00:00 19.3 8 Nordeste 12 Nordeste 0 -- -- 90
2020-06-28 02:00:00 19.4 5 Nordeste 13 Nordeste 0 -- -- 90
2020-06-28 01:00:00 19.6 4 Nordeste 12 Nordeste 0 -- -- 89
2020-06-28 00:00:00 20.2 9 Nordeste 12 Nordeste 0 -- -- 90
2020-06-27 23:00:00 21.1 3 Norte 8 Norte 0 -- -- 87
2020-06-27 22:00:00 22.4 0 Calma 8 Sur 0 -- -- 85
2020-06-27 21:00:00 23.5 6 Sudoeste 15 Sur 0 -- -- 81
2020-06-27 20:00:00 25.3 9 Sudoeste 18 Sur 0 -- -- 72
2020-06-27 19:00:00 26.9 10 Sur 23 Sur 0 -- -- 56
2020-06-27 18:00:00 27.1 13 Sur 26 Sur 0 -- -- 45
2020-06-27 17:00:00 27.7 14 Sur 31 Sur 0 -- -- 48
2020-06-27 16:00:00 28.7 18 Sur 35 Sur 0 -- -- 53
2020-06-27 15:00:00 28.5 21 Sur 35 Sur 0 -- -- 57
2020-06-27 14:00:00 28 17 Sur 28 Sudeste 0 -- -- 63
2020-06-27 13:00:00 28.3 12 Sur 23 Sur 0 -- -- 58
2020-06-27 12:00:00 27.2 11 Sur 18 Sur 0 -- -- 62
2020-06-27 11:00:00 25.7 9 Sudeste 18 Sudeste 0 -- -- 67
2020-06-27 10:00:00 24.8 8 Sur 14 Sur 0 -- -- 69
2020-06-27 09:00:00 23.6 0 Calma 4 Nordeste 0 -- -- 66
2020-06-27 08:00:00 20.2 0 Calma 15 Nordeste 0 -- -- 77
2020-06-27 07:00:00 18.9 9 Nordeste 15 Nordeste 0 -- -- 78
2020-06-27 06:00:00 18.6 5 Nordeste 12 Nordeste 0 -- -- 81
2020-06-27 05:00:00 20.1 3 Sur 19 Nordeste 0 -- -- 77
2020-06-27 04:00:00 20.7 6 Nordeste 19 Nordeste 0 -- -- 74
2020-06-27 03:00:00 19.5 12 Nordeste 18 Nordeste 0 -- -- 74
2020-06-27 02:00:00 19 9 Nordeste 17 Nordeste 0 -- -- 75
2020-06-27 01:00:00 19.4 10 Nordeste 17 Nordeste 0 -- -- 75
2020-06-27 00:00:00 19.8 10 Nordeste 13 Este 0 -- -- 76
2020-06-26 23:00:00 20.6 8 Nordeste 11 Nordeste 0 -- -- 79
2020-06-26 22:00:00 22.4 3 Nordeste 13 Este 0 -- -- 74
2020-06-26 21:00:00 23.9 6 Sudeste 30 Sur 0 -- -- 68
2020-06-26 20:00:00 25.5 17 Sur 35 Sur 0 -- -- 61
2020-06-26 19:00:00 27 21 Sur 37 Sur 0 -- -- 56
2020-06-26 18:00:00 28.5 21 Sur 37 Sur 0 -- -- 47
2020-06-26 17:00:00 29.1 26 Sur 40 Sur 0 -- -- 45
2020-06-26 16:00:00 29.8 24 Sur 40 Sur 0 -- -- 45
2020-06-26 15:00:00 29.8 23 Sur 38 Sur 0 -- -- 43
2020-06-26 14:00:00 29.1 18 Sur 27 Sur 0 -- -- 47
2020-06-26 13:00:00 28.4 10 Sur 22 Sur 0 -- -- 56
2020-06-26 12:00:00 27.5 10 Sur 23 Sur 0 -- -- 56
2020-06-26 11:00:00 26.3 8 Sudoeste 14 Este 0 -- -- 64
2020-06-26 10:00:00 23.7 6 Este 10 Este 0 -- -- 78
2020-06-26 09:00:00 21.7 2 Sudoeste 13 Sur 0 -- -- 88
2020-06-26 08:00:00 21.8 5 Sur 10 Sur 0 -- -- 87
2020-06-26 07:00:00 18.9 5 Este 9 Norte 0 -- -- 94
2020-06-26 06:00:00 19.2 0 Calma 11 Norte 0 -- -- 93
2020-06-26 05:00:00 20.4 0 Calma 9 Noroeste 0 -- -- 93
2020-06-26 04:00:00 20.2 8 Noroeste 13 Oeste 0 -- -- 91
2020-06-26 03:00:00 20.1 8 Norte 12 Nordeste 0 -- -- 89
2020-06-26 02:00:00 19.5 0 Calma 16 Nordeste 0 -- -- 88
2020-06-26 01:00:00 20 8 Nordeste 13 Nordeste 0 -- -- 88
2020-06-26 00:00:00 20 8 Nordeste 13 Nordeste 0 -- -- 90
2020-06-25 23:00:00 20.4 4 Nordeste 8 Norte 0 -- -- 89
2020-06-25 22:00:00 21.9 0 Calma 5 Norte 0 -- -- 85
2020-06-25 21:00:00 23.3 4 Sur 9 Sudoeste 0 -- -- 82
2020-06-25 20:00:00 23.4 6 Sudoeste 12 Sudoeste 0 -- -- 82
2020-06-25 19:00:00 24 8 Sur 13 Sudeste 0 -- -- 77
2020-06-25 18:00:00 25.4 6 Sur 11 Sudeste 0 -- -- 66
2020-06-25 17:00:00 26.2 9 Sur 21 Sur 0 -- -- 61
2020-06-25 16:00:00 28.4 12 Sur 23 Sur 0 -- -- 57
2020-06-25 15:00:00 28.4 13 Sur 24 Sur 0 -- -- 58
2020-06-25 14:00:00 27.7 13 Sur 27 Sur 0 -- -- 58
2020-06-25 13:00:00 27.3 13 Sudoeste 24 Sudoeste 0 -- -- 61
2020-06-25 12:00:00 26.9 10 Sudoeste 19 Sur 0 -- -- 64
2020-06-25 11:00:00 25.2 8 Sudoeste 15 Sudoeste 0 -- -- 68
2020-06-25 10:00:00 24.1 6 Sur 13 Sudeste 0 -- -- 72
2020-06-25 09:00:00 23.2 4 Sudeste 10 Sudeste 0 -- -- 75
2020-06-25 08:00:00 21.2 4 Nordeste 11 Nordeste 0 -- -- 81
2020-06-25 07:00:00 18.2 4 Nordeste 12 Nordeste 0 -- -- 88
2020-06-25 06:00:00 18.2 4 Norte 17 Nordeste 0 -- -- 87
2020-06-25 05:00:00 18.1 7 Nordeste 12 Nordeste 0 -- -- 88
2020-06-25 04:00:00 18 7 Nordeste 10 Nordeste 0 -- -- 89
2020-06-25 03:00:00 18 9 Nordeste 14 Nordeste 0 -- -- 88
2020-06-25 02:00:00 18.2 6 Nordeste 15 Nordeste 0 -- -- 86
2020-06-25 01:00:00 18.7 4 Nordeste 14 Nordeste 0 -- -- 85
2020-06-25 00:00:00 19.2 5 Nordeste 13 Nordeste 0 -- -- 83
2020-06-24 23:00:00 20.2 7 Nordeste 11 Nordeste 0 -- -- 81
2020-06-24 22:00:00 21.7 2 Norte 7 Sur 0 -- -- 78
2020-06-24 21:00:00 23.1 4 Sudoeste 13 Sudeste 0 -- -- 72
2020-06-24 20:00:00 24.3 5 Este 17 Sur 0 -- -- 66
2020-06-24 19:00:00 24.9 9 Sudeste 32 Sur 0 -- -- 62
2020-06-24 18:00:00 26.6 20 Sur 38 Sur 0 -- -- 56
2020-06-24 17:00:00 27.5 22 Sur 35 Sudeste 0 -- -- 58
2020-06-24 16:00:00 28.2 20 Sur 34 Sur 0 -- -- 60
2020-06-24 15:00:00 29.1 17 Sur 27 Sudeste 0 -- -- 53
2020-06-24 14:00:00 28.9 15 Sur 42 Sur 0 -- -- 55
2020-06-24 13:00:00 28.4 7 Oeste 21 Sudoeste 0 -- -- 54
2020-06-24 12:00:00 27 9 Sudoeste 19 Sur 0 -- -- 57
2020-06-24 11:00:00 25.5 8 Sur 14 Sur 0 -- -- 61
2020-06-24 10:00:00 23.8 7 Sudoeste 14 Sur 0 -- -- 66
2020-06-24 09:00:00 22.9 5 Oeste 9 Sudoeste 0 -- -- 69
2020-06-24 08:00:00 20.8 4 Este 12 Nordeste 0 -- -- 80
2020-06-24 07:00:00 17.5 6 Nordeste 12 Nordeste 0 -- -- 91
2020-06-24 06:00:00 17.5 9 Nordeste 12 Nordeste 0 -- -- 89
2020-06-24 05:00:00 17.8 8 Nordeste 12 Nordeste 0 -- -- 88
2020-06-24 04:00:00 18.4 7 Nordeste 14 Nordeste 0 -- -- 85
2020-06-24 03:00:00 18.6 8 Nordeste 13 Nordeste 0 -- -- 85
2020-06-24 02:00:00 19 10 Nordeste 14 Nordeste 0 -- -- 84
2020-06-24 01:00:00 19.5 5 Nordeste 13 Nordeste 0 -- -- 81
2020-06-24 00:00:00 20.3 8 Nordeste 14 Nordeste 0 -- -- 79
2020-06-23 23:00:00 21 7 Nordeste 12 Nordeste 0 -- -- 78
2020-06-23 22:00:00 22.4 4 Nordeste 9 Nordeste 0 -- -- 74
2020-06-23 21:00:00 25.3 5 Sur 13 Sur 0 -- -- 65
2020-06-23 20:00:00 26.7 8 Sur 14 Sur 0 -- -- 59
2020-06-23 19:00:00 27.2 9 Sur 18 Sur 0 -- -- 58
2020-06-23 18:00:00 27.4 10 Sur 25 Sur 0 -- -- 54
2020-06-23 17:00:00 27.6 14 Sur 27 Sur 0 -- -- 51
2020-06-23 16:00:00 27.5 16 Sur 30 Sur 0 -- -- 48
2020-06-23 15:00:00 27.5 17 Sur 29 Sur 0 -- -- 47
2020-06-23 14:00:00 28.5 16 Sur 28 Sur 0 -- -- 47
2020-06-23 13:00:00 28.7 13 Sudoeste 21 Sur 0 -- -- 47
2020-06-23 12:00:00 28 11 Sur 19 Sur 0 -- -- 48
2020-06-23 11:00:00 26.8 6 Sur 14 Sudoeste 0 -- -- 48
2020-06-23 10:00:00 25.6 3 Sudoeste 8 Oeste 0 -- -- 51
2020-06-23 09:00:00 23.2 0 Calma 4 Sudoeste 0 -- -- 61
2020-06-23 08:00:00 21.4 0 Calma 13 Nordeste 0 -- -- 68
2020-06-23 07:00:00 18.5 2 Nordeste 9 Este 0 -- -- 71
2020-06-23 06:00:00 18.4 0 Calma 9 Nordeste 0 -- -- 71
2020-06-23 05:00:00 19.9 2 Nordeste 8 Nordeste 0 -- -- 65
2020-06-23 04:00:00 21.3 4 Norte 15 Norte 0 -- -- 59
2020-06-23 03:00:00 23.6 9 Nordeste 28 Norte 0 -- -- 50
2020-06-23 02:00:00 24.3 17 Norte 34 Norte 0 -- -- 48
2020-06-23 01:00:00 24.3 17 Norte 37 Norte 0 -- -- 47
2020-06-23 00:00:00 24.4 19 Norte 39 Norte 0 -- -- 47
2020-06-22 23:00:00 24.3 18 Norte 39 Norte 0 -- -- 46
2020-06-22 22:00:00 22.5 7 Norte 28 Noroeste 0 -- -- 54
2020-06-22 21:00:00 25.2 11 Noroeste 21 Norte 0 -- -- 47
2020-06-22 20:00:00 27.4 10 Norte 37 Norte 0 -- -- 43
2020-06-22 19:00:00 27.5 15 Norte 42 Norte 0 -- -- 42
2020-06-22 18:00:00 28.8 19 Norte 39 Norte 0 -- -- 41
2020-06-22 17:00:00 29.3 17 Norte 47 Norte 0 -- -- 42
2020-06-22 16:00:00 28.4 23 Nordeste 44 Norte 0 -- -- 43
2020-06-22 15:00:00 28.6 19 Norte 40 Norte 0 -- -- 44
2020-06-22 14:00:00 28 21 Norte 39 Norte 0 -- -- 46
2020-06-22 13:00:00 27 21 Norte 47 Nordeste 0 -- -- 49
2020-06-22 12:00:00 26.4 23 Norte 45 Nordeste 0 -- -- 49
2020-06-22 11:00:00 25.7 21 Norte 49 Norte 0 -- -- 51
2020-06-22 10:00:00 24.6 27 Norte 54 Norte 0 -- -- 53
2020-06-22 09:00:00 23.9 28 Norte 64 Norte 0 -- -- 54
2020-06-22 08:00:00 23.9 36 Norte 66 Norte 0 -- -- 51
2020-06-22 07:00:00 23.1 39 Norte 75 Norte 0 -- -- 53
2020-06-22 06:00:00 22.8 34 Norte 69 Norte 0 -- -- 55
2020-06-22 05:00:00 24 38 Norte 69 Norte 0 -- -- 48
2020-06-22 04:00:00 23.8 34 Norte 64 Norte 0 -- -- 50
2020-06-22 03:00:00 23.5 18 Noroeste 56 Norte 0 -- -- 52
2020-06-22 02:00:00 23.2 21 Norte 56 Norte 0 -- -- 54
2020-06-22 01:00:00 23.3 27 Norte 68 Nordeste 0 -- -- 53
2020-06-22 00:00:00 23.3 27 Norte 64 Norte 0 -- -- 54
2020-06-21 23:00:00 24.1 24 Norte 48 Norte 0 -- -- 51
2020-06-21 22:00:00 24.9 17 Norte 40 Norte 0 -- -- 46
2020-06-21 21:00:00 25.9 16 Norte 39 Norte 0 -- -- 40
2020-06-21 20:00:00 27.5 11 Norte 34 Nordeste 0 -- -- 38
2020-06-21 19:00:00 28.6 10 Norte 41 Norte 0 -- -- 33
2020-06-21 18:00:00 29.3 21 Norte 43 Noroeste 0 -- -- 34
2020-06-21 17:00:00 30.1 13 Norte 33 Norte 0 -- -- 35
2020-06-21 16:00:00 29.8 12 Noroeste 33 Noroeste 0 -- -- 38
2020-06-21 15:00:00 29.7 13 Norte 23 Noroeste 0 -- -- 41
2020-06-21 14:00:00 29 11 Noroeste 25 Noroeste 0 -- -- 44
2020-06-21 13:00:00 28 15 Noroeste 25 Norte 0 -- -- 46
2020-06-21 12:00:00 27.1 11 Norte 28 Nordeste 0 -- -- 49
2020-06-21 11:00:00 25.5 15 Norte 28 Norte 0 -- -- 51
2020-06-21 10:00:00 24.3 21 Noroeste 39 Norte 0 -- -- 55
2020-06-21 09:00:00 23.3 24 Noroeste 38 Norte 0 -- -- 57
2020-06-21 08:00:00 22.3 10 Norte 26 Noroeste 0 -- -- 60
2020-06-21 07:00:00 20.3 5 Sudoeste 29 Norte 0 -- -- 68
2020-06-21 06:00:00 21.6 13 Norte 40 Norte 0 -- -- 60
2020-06-21 05:00:00 21.4 17 Norte 32 Norte 0 -- -- 63
2020-06-21 04:00:00 20.6 8 Nordeste 18 Sur 0 -- -- 66
2020-06-21 03:00:00 20.1 4 Sur 14 Sudoeste 0 -- -- 70
2020-06-21 02:00:00 19.6 4 Sudoeste 14 Sudoeste 0 -- -- 72
2020-06-21 01:00:00 20.3 4 Oeste 19 Nordeste 0 -- -- 72
2020-06-21 00:00:00 19.1 4 Sudeste 9 Oeste 0 -- -- 87
2020-06-20 23:00:00 20 5 Este 12 Nordeste 0 -- -- 87
2020-06-20 22:00:00 20.8 5 Este 9 Sudeste 0 -- -- 83
2020-06-20 21:00:00 23.1 3 Sur 13 Sur 0 -- -- 75
2020-06-20 20:00:00 24 7 Sur 14 Sur 0 -- -- 70
2020-06-20 19:00:00 24.7 8 Sudeste 20 Sur 0 -- -- 66
2020-06-20 18:00:00 25 15 Sur 25 Sur 0 -- -- 59
2020-06-20 17:00:00 25.6 15 Sur 28 Sur 0 -- -- 50
2020-06-20 16:00:00 26.1 14 Sur 29 Sudoeste 0 -- -- 48
2020-06-20 15:00:00 26.9 17 Sur 28 Sur 0 -- -- 47
2020-06-20 14:00:00 26.5 12 Sur 27 Sur 0 -- -- 48
2020-06-20 13:00:00 26.6 11 Sur 24 Sudoeste 0 -- -- 47
2020-06-20 12:00:00 25.8 10 Sudoeste 21 Sur 0 -- -- 48
2020-06-20 11:00:00 25.1 6 Sudoeste 17 Sudoeste 0 -- -- 47
2020-06-20 10:00:00 24.2 6 Sudoeste 13 Oeste 0 -- -- 50
2020-06-20 09:00:00 22.5 5 Sudeste 9 Sudeste 0 -- -- 59
2020-06-20 08:00:00 19.5 0 Calma 6 Nordeste 0 -- -- 73
2020-06-20 07:00:00 15.8 4 Nordeste 10 Nordeste 0 -- -- 81
2020-06-20 06:00:00 15.4 3 Norte 9 Nordeste 0 -- -- 82
2020-06-20 05:00:00 16.7 4 Nordeste 6 Nordeste 0 -- -- 83
2020-06-20 04:00:00 16.7 3 Nordeste 7 Nordeste 0 -- -- 81
2020-06-20 03:00:00 17.1 3 Nordeste 10 Este 0 -- -- 81
2020-06-20 02:00:00 17.8 6 Norte 9 Noroeste 0 -- -- 81
2020-06-20 01:00:00 18.2 3 Nordeste 6 Noroeste 0 -- -- 83
2020-06-20 00:00:00 18.7 0 Calma 6 Norte 0 -- -- 80
2020-06-19 23:00:00 19.2 4 Este 9 Norte 0 -- -- 77
2020-06-19 22:00:00 19.8 5 Este 6 Este 0 -- -- 72
2020-06-19 21:00:00 21.1 6 Sudoeste 9 Sudoeste 0 -- -- 67
2020-06-19 20:00:00 21.7 4 Sudoeste 6 Sudoeste 0 -- -- 62
2020-06-19 19:00:00 21.6 3 Sudoeste 9 Sudoeste 0 -- -- 61
2020-06-19 18:00:00 21.5 5 Sudoeste 16 Sudoeste 0 -- -- 60
2020-06-19 17:00:00 22.1 12 Sudoeste 17 Sudoeste 0 -- -- 60
2020-06-19 16:00:00 23.7 8 Sudoeste 20 Sudoeste 0 -- -- 57
2020-06-19 15:00:00 23.1 12 Sudoeste 24 Sudoeste 0 -- -- 58
2020-06-19 14:00:00 24.4 13 Sudoeste 25 Sur 0 -- -- 54
2020-06-19 13:00:00 24 11 Sudoeste 20 Sudoeste 0 -- -- 54
2020-06-19 12:00:00 23 9 Sudoeste 15 Sur 0 -- -- 53
2020-06-19 11:00:00 21.7 9 Sur 14 Sudoeste 0 -- -- 60
2020-06-19 10:00:00 20.3 7 Sudoeste 14 Sudoeste 0 -- -- 67
2020-06-19 09:00:00 19.6 2 Sudoeste 12 Norte 0 -- -- 64
2020-06-19 08:00:00 15.9 6 Nordeste 10 Nordeste 0 -- -- 88
2020-06-19 07:00:00 14.4 0 Calma 12 Nordeste 0 -- -- 89
2020-06-19 06:00:00 13.4 4 Nordeste 10 Este 0 -- -- 89
2020-06-19 05:00:00 12.1 5 Nordeste 10 Nordeste 0 -- -- 92
2020-06-19 04:00:00 12.6 0 Calma 12 Nordeste 0 -- -- 88
2020-06-19 03:00:00 13.2 6 Nordeste 16 Nordeste 0 -- -- 88
2020-06-19 02:00:00 13.2 3 Noroeste 10 Nordeste 0 -- -- 88
2020-06-19 01:00:00 14.2 6 Norte 18 Este 0 -- -- 91
2020-06-19 00:00:00 14.3 4 Nordeste 12 Nordeste 0 -- -- 93
2020-06-18 23:00:00 14.9 5 Norte 12 Nordeste 0 -- -- 92
2020-06-18 22:00:00 16.1 8 Nordeste 11 Nordeste 0 -- -- 91
2020-06-18 21:00:00 17.2 5 Sur 11 Sur 0 -- -- 88
2020-06-18 20:00:00 17.7 3 Este 10 Oeste 0 -- -- 83
2020-06-18 19:00:00 17.9 4 Oeste 15 Sur 0 -- -- 83
2020-06-18 18:00:00 19.3 8 Sudoeste 12 Sudoeste 0 -- -- 74
2020-06-18 17:00:00 19.7 10 Sur 20 Sur 0 -- -- 73
2020-06-18 16:00:00 21.9 12 Sur 23 Sur 0 -- -- 63
2020-06-18 15:00:00 21.9 7 Sudoeste 18 Sudoeste 0 -- -- 63
2020-06-18 14:00:00 20.6 9 Sur 18 Sur 0 -- -- 67
2020-06-18 13:00:00 18.5 6 Sudeste 12 Sur 0 -- -- 76
2020-06-18 12:00:00 17.2 6 Este 20 Sudeste 0 -- -- 82
2020-06-18 11:00:00 16.5 8 Sudeste 13 Sudeste 0 -- -- 90
2020-06-18 10:00:00 16.1 3 Sur 9 Sur 0 -- -- 89
2020-06-18 09:00:00 16.5 6 Sur 13 Nordeste 0 -- -- 86
2020-06-18 08:00:00 15.2 4 Norte 10 Norte 0 -- -- 86
2020-06-18 07:00:00 12.8 3 Noroeste 16 Nordeste 0 -- -- 91
2020-06-18 06:00:00 12.8 3 Nordeste 11 Nordeste 0 -- -- 94
2020-06-18 05:00:00 13.1 0 Calma -- -- 0 -- -- 94
2020-06-18 04:00:00 13.3 0 Calma 12 Norte 0 -- -- 93
2020-06-18 03:00:00 13.5 5 Norte 14 Norte 0 -- -- 93
2020-06-18 02:00:00 14.5 5 Nordeste 9 Este 0 -- -- 94
2020-06-18 01:00:00 14.8 5 Este 9 Este 0 -- -- 94
2020-06-18 00:00:00 15.3 0 Calma 8 Noroeste 0 -- -- 94
2020-06-17 23:00:00 15.7 0 Calma 6 Sudoeste 0 -- -- 94
2020-06-17 22:00:00 16 0 Calma 5 Este 0.2 -- -- 93
2020-06-17 21:00:00 16.2 0 Calma 12 Oeste 0 -- -- 92
2020-06-17 20:00:00 16.9 5 Sudoeste 9 Sudoeste 0 -- -- 89
2020-06-17 19:00:00 17.2 5 Oeste 12 Oeste 0 -- -- 88
2020-06-17 18:00:00 17.5 3 Oeste 11 Oeste 0.6 -- -- 91
2020-06-17 17:00:00 16.8 2 Oeste 17 Sudoeste 2.4 -- -- 91
2020-06-17 16:00:00 17.2 6 Norte 10 Nordeste 2.4 -- -- 87
2020-06-17 15:00:00 20 4 Este 23 Sudeste 1.2 -- -- 68
2020-06-17 14:00:00 21.7 7 Oeste 12 Norte 0 -- -- 55
2020-06-17 13:00:00 21.3 6 Sudeste 17 Este 0 -- -- 56
2020-06-17 12:00:00 20.6 7 Sudeste 15 Nordeste 0 -- -- 56
2020-06-17 11:00:00 20.1 9 Nordeste 21 Nordeste 0 -- -- 56
2020-06-17 10:00:00 18.9 4 Norte 12 Sur 0 -- -- 61
2020-06-17 09:00:00 17.3 4 Sur 8 Sur 0 -- -- 72
2020-06-17 08:00:00 16.4 2 Sudoeste 13 Sudoeste 0 -- -- 75
2020-06-17 07:00:00 15.5 4 Sudeste 12 Sudoeste 0 -- -- 77
2020-06-17 06:00:00 16.2 3 Sudeste 23 Norte 0 -- -- 71
2020-06-17 05:00:00 17.6 11 Norte 25 Nordeste 0 -- -- 63
2020-06-17 04:00:00 17.8 14 Norte 35 Norte 0 -- -- 60
2020-06-17 03:00:00 17.9 14 Norte 33 Norte 0 -- -- 60
2020-06-17 02:00:00 17.8 9 Norte 29 Norte 0 -- -- 58
2020-06-17 01:00:00 17.1 4 Sur 28 Noroeste 0 -- -- 63
2020-06-17 00:00:00 18.6 15 Noroeste 27 Oeste 0 -- -- 58
2020-06-16 23:00:00 20.1 7 Oeste 29 Nordeste 0 -- -- 54
2020-06-16 22:00:00 18.5 7 Sur 15 Sudeste 0 -- -- 71
2020-06-16 21:00:00 18.9 5 Este 8 Sudoeste 0 -- -- 79
2020-06-16 20:00:00 20 0 Calma 17 Norte 0 -- -- 70
2020-06-16 19:00:00 20.6 0 Calma 10 Sudeste 0 -- -- 73
2020-06-16 18:00:00 20.8 8 Sudeste 14 Este 0 -- -- 73
2020-06-16 17:00:00 19.3 9 Oeste 20 Oeste 0 -- -- 82
2020-06-16 16:00:00 20.4 8 Sudoeste 16 Sudoeste 0 -- -- 77
2020-06-16 15:00:00 21.3 6 Oeste 11 Sudoeste 0 -- -- 69
2020-06-16 14:00:00 21 4 Sudoeste 9 Sudoeste 0 -- -- 68
2020-06-16 13:00:00 19.5 3 Sur 7 Sur 0 -- -- 77
2020-06-16 12:00:00 19.1 3 Sur 8 Sudoeste 0 -- -- 76
2020-06-16 11:00:00 18.2 5 Sur 8 Sur 0.4 -- -- 81
2020-06-16 10:00:00 17.6 0 Calma 6 Sudeste 0.8 -- -- 87
2020-06-16 09:00:00 17.5 6 Este 12 Nordeste 0 -- -- 82
2020-06-16 08:00:00 17.2 5 Este 10 Oeste 0.2 -- -- 85
2020-06-16 07:00:00 18.3 4 Sudoeste 10 Sudeste 0 -- -- 70
2020-06-16 06:00:00 19.2 3 Sudeste 14 Sur 0 -- -- 66
2020-06-16 05:00:00 19.6 5 Sudeste 24 Norte 0 -- -- 62
2020-06-16 04:00:00 20.2 11 Nordeste 31 Norte 0 -- -- 59
2020-06-16 03:00:00 20.5 16 Nordeste 36 Norte 0 -- -- 57
2020-06-16 02:00:00 20.7 16 Norte 40 Noroeste 0 -- -- 56
2020-06-16 01:00:00 21.1 14 Norte 39 Norte 0 -- -- 54
2020-06-16 00:00:00 21.1 17 Norte 40 Norte 0 -- -- 54
2020-06-15 23:00:00 19.8 7 Sur 16 Sudeste 0 -- -- 66
2020-06-15 22:00:00 18.5 2 Este 9 Este 0 -- -- 78
2020-06-15 21:00:00 19.5 0 Calma 10 Sudoeste 0 -- -- 75
2020-06-15 20:00:00 20.7 8 Sudoeste 14 Sudoeste 0 -- -- 71
2020-06-15 19:00:00 21 7 Sudoeste 13 Sudoeste 0 -- -- 71
2020-06-15 18:00:00 21 7 Sudoeste 12 Sudoeste 0 -- -- 67
2020-06-15 17:00:00 21.7 6 Sudoeste 22 Sur 0 -- -- 62
2020-06-15 16:00:00 23.7 13 Sur 22 Sur 0 -- -- 55
2020-06-15 15:00:00 23.7 7 Sudeste 17 Este 0 -- -- 50
2020-06-15 14:00:00 25.4 5 Noroeste 13 Oeste 0 -- -- 46
2020-06-15 13:00:00 23.7 4 Noroeste 16 Noroeste 0 -- -- 46
2020-06-15 12:00:00 23.3 9 Oeste 21 Norte 0 -- -- 46
2020-06-15 11:00:00 23 9 Noroeste 24 Norte 0 -- -- 46
2020-06-15 10:00:00 21.8 12 Norte 35 Norte 0 -- -- 49
2020-06-15 09:00:00 20.5 16 Norte 36 Norte 0 -- -- 53
2020-06-15 08:00:00 19.9 13 Norte 33 Norte 0 -- -- 56
2020-06-15 07:00:00 19 10 Nordeste 36 Norte 0 -- -- 60
2020-06-15 06:00:00 19.5 15 Norte 45 Norte 0 -- -- 55
2020-06-15 05:00:00 19.9 26 Norte 52 Norte 0 -- -- 56
2020-06-15 04:00:00 20.2 26 Norte 51 Noroeste 0 -- -- 56
2020-06-15 03:00:00 20.2 27 Norte 50 Norte 0 -- -- 56
2020-06-15 02:00:00 20.6 15 Norte 32 Norte 0 -- -- 56
2020-06-15 01:00:00 20.8 8 Nordeste 22 Norte 0 -- -- 55
2020-06-15 00:00:00 20.6 8 Norte 17 Oeste 0 -- -- 55
2020-06-14 23:00:00 20.2 8 Noroeste 15 Norte 0 -- -- 58
2020-06-14 22:00:00 19.4 3 Este 5 Nordeste 0 -- -- 71
2020-06-14 21:00:00 20.5 3 Nordeste 7 Norte 0 -- -- 70
2020-06-14 20:00:00 22.2 4 Sudoeste 9 Oeste 0 -- -- 58
2020-06-14 19:00:00 22.3 5 Oeste 9 Sudoeste 0 -- -- 57
2020-06-14 18:00:00 22.2 4 Sur 10 Sur 0 -- -- 57
2020-06-14 17:00:00 21.7 6 Sur 15 Sur 0 -- -- 57
2020-06-14 16:00:00 22.7 8 Sur 23 Sur 0 -- -- 54
2020-06-14 15:00:00 23.8 10 Sur 18 Sudoeste 0 -- -- 52
2020-06-14 14:00:00 25.4 6 Sur 18 Sudoeste 0 -- -- 46
2020-06-14 13:00:00 24.5 11 Sudoeste 20 Sudoeste 0 -- -- 42
2020-06-14 12:00:00 24.1 7 Oeste 16 Sur 0 -- -- 47
2020-06-14 11:00:00 23.3 6 Sur 15 Sudoeste 0 -- -- 47
2020-06-14 10:00:00 22.4 5 Oeste 14 Noroeste 0 -- -- 47
2020-06-14 09:00:00 20.9 4 Oeste 8 Oeste 0 -- -- 56
2020-06-14 08:00:00 18.6 0 Calma 6 Sudeste 0 -- -- 64
2020-06-14 07:00:00 17.2 2 Sur 19 Norte 0 -- -- 65
2020-06-14 06:00:00 17.9 11 Nordeste 22 Norte 0 -- -- 57
2020-06-14 05:00:00 19.3 8 Nordeste 27 Norte 0 -- -- 52
2020-06-14 04:00:00 18 6 Nordeste 14 Sudeste 0 -- -- 59
2020-06-14 03:00:00 20.1 7 Nordeste 35 Noroeste 0 -- -- 47
2020-06-14 02:00:00 20 19 Norte 34 Nordeste 0 -- -- 49
2020-06-14 01:00:00 18.8 8 Sudeste 21 Este 0 -- -- 57
2020-06-14 00:00:00 19.6 8 Nordeste 32 Noroeste 0 -- -- 54
2020-06-13 23:00:00 19.1 17 Norte 39 Noroeste 0 -- -- 52
2020-06-13 22:00:00 17.9 8 Norte 30 Norte 0 -- -- 69
2020-06-13 21:00:00 18.6 13 Norte 41 Noroeste 0 -- -- 64
2020-06-13 20:00:00 19.8 17 Norte 39 Noroeste 0 -- -- 58
2020-06-13 19:00:00 21.7 5 Norte 17 Nordeste 0 -- -- 56
2020-06-13 18:00:00 21.6 4 Sur 15 Sur 0 -- -- 64
2020-06-13 17:00:00 21.2 10 Sudeste 27 Norte 0 -- -- 68
2020-06-13 16:00:00 24.5 17 Norte 32 Noroeste 0 -- -- 47
2020-06-13 15:00:00 24.4 15 Norte 28 Norte 0 -- -- 47
2020-06-13 14:00:00 22.7 12 Norte 22 Noroeste 0 -- -- 60
2020-06-13 13:00:00 23.1 5 Noroeste 14 Sudoeste 0 -- -- 50
2020-06-13 12:00:00 21.7 4 Este 19 Sudeste 0 -- -- 58
2020-06-13 11:00:00 18.8 6 Sur 15 Sudeste 0 -- -- 77
2020-06-13 10:00:00 17 0 Calma 15 Nordeste 0 -- -- 78
2020-06-13 09:00:00 16 10 Nordeste 16 Nordeste 0 -- -- 76
2020-06-13 08:00:00 14.8 4 Norte 14 Nordeste 0 -- -- 80
2020-06-13 07:00:00 14.7 10 Nordeste 22 Nordeste 0 -- -- 73
2020-06-13 06:00:00 13.2 12 Nordeste 19 Nordeste 0 -- -- 81
2020-06-13 05:00:00 12.1 3 Nordeste 11 Nordeste 0 -- -- 86
2020-06-13 04:00:00 12.1 6 Nordeste 11 Nordeste 0 -- -- 86
2020-06-13 03:00:00 12.6 5 Norte 9 Norte 0 -- -- 86
2020-06-13 02:00:00 13.5 5 Nordeste 9 Nordeste 0 -- -- 85
2020-06-13 01:00:00 14.2 6 Este 12 Nordeste 0 -- -- 83
2020-06-13 00:00:00 15.9 2 Nordeste 6 Noroeste 0 -- -- 78
2020-06-12 23:00:00 17.2 3 Noroeste 12 Este 0 -- -- 74
2020-06-12 22:00:00 19.5 10 Sur 17 Sur 0 -- -- 65
2020-06-12 21:00:00 22 10 Sur 27 Sudoeste 0 -- -- 58
2020-06-12 20:00:00 24.7 15 Sudoeste 37 Sudoeste 0 -- -- 46
2020-06-12 19:00:00 25.9 21 Sudoeste 41 Sudoeste 0 -- -- 42
2020-06-12 18:00:00 26.3 29 Oeste 47 Sudoeste 0 -- -- 34
2020-06-12 17:00:00 26.8 25 Oeste 48 Oeste 0 -- -- 36
2020-06-12 16:00:00 26.9 28 Sudoeste 47 Oeste 0 -- -- 34
2020-06-12 15:00:00 26.8 27 Sudoeste 46 Sudoeste 0 -- -- 36
2020-06-12 14:00:00 26.6 27 Sudoeste 47 Sudoeste 0 -- -- 38
2020-06-12 13:00:00 26 27 Sudoeste 43 Sudoeste 0 -- -- 40
2020-06-12 12:00:00 23.9 15 Sur 27 Sur 0 -- -- 61
2020-06-12 11:00:00 22.2 8 Sudoeste 16 Sur 0 -- -- 75
2020-06-12 10:00:00 20.5 7 Sur 17 Sudoeste 0 -- -- 84
2020-06-12 09:00:00 19.9 9 Sudoeste 14 Sudeste 0 -- -- 89
2020-06-12 08:00:00 18.9 5 Sur 11 Sudeste 0 -- -- 96
2020-06-12 07:00:00 18.4 3 Sur 15 Sur 0 -- -- 96
2020-06-12 06:00:00 18.5 8 Sudeste 17 Sur 0 -- -- 96
2020-06-12 05:00:00 18.6 5 Sur 18 Sudoeste 0 -- -- 96
2020-06-12 04:00:00 18.6 8 Sur 12 Sur 0 -- -- 96
2020-06-12 03:00:00 18.6 5 Sur 19 Sudeste 0 -- -- 95
2020-06-12 02:00:00 18.3 8 Sudeste 17 Sudeste 0 -- -- 94
2020-06-12 01:00:00 18.5 5 Sur 13 Sur 0 -- -- 94
2020-06-12 00:00:00 18.7 9 Sur 18 Sur 0 -- -- 94
2020-06-11 23:00:00 18.8 11 Sur 24 Sur 0 -- -- 93
2020-06-11 22:00:00 19.2 12 Sur 25 Sur 0 -- -- 90
2020-06-11 21:00:00 19.5 12 Sur 27 Sur 0 -- -- 88
2020-06-11 20:00:00 20 17 Sur 33 Sur 0 -- -- 80
2020-06-11 19:00:00 21.1 22 Sur 37 Sudoeste 0 -- -- 76
2020-06-11 18:00:00 20.6 23 Sur 42 Sur 0 -- -- 79
2020-06-11 17:00:00 20.3 24 Sur 42 Sur 0 -- -- 75
2020-06-11 16:00:00 21.4 20 Sur 33 Sur 0 -- -- 72
2020-06-11 15:00:00 22 15 Sur 30 Sudoeste 0 -- -- 64
2020-06-11 14:00:00 21.9 20 Sudoeste 30 Sudoeste 0 -- -- 65
2020-06-11 13:00:00 20.8 14 Sudoeste 25 Sur 0 -- -- 69
2020-06-11 12:00:00 19.1 12 Sur 24 Sudoeste 0.2 -- -- 74
2020-06-11 11:00:00 17.7 10 Sudoeste 18 Sudoeste 0 -- -- 73
2020-06-11 10:00:00 15.5 0 Calma 4 Este 0 -- -- 89
2020-06-11 09:00:00 14.3 0 Calma 5 Oeste 0 -- -- 95
2020-06-11 08:00:00 13.8 0 Calma 6 Este 0 -- -- 95
2020-06-11 07:00:00 13.1 0 Calma 5 Este 0 -- -- 95
2020-06-11 06:00:00 13.4 0 Calma 3 Sudoeste 0 -- -- 94
2020-06-11 05:00:00 13.5 0 Calma 5 Nordeste 0 -- -- 94
2020-06-11 04:00:00 13.5 4 Este 6 Este 0.6 -- -- 94
2020-06-11 03:00:00 14.1 0 Calma 7 Sur 0.6 -- -- 94
2020-06-11 02:00:00 14.5 0 Calma 5 Nordeste 0.2 -- -- 93
2020-06-11 01:00:00 14.9 3 Sudoeste 8 Este 1 -- -- 92
2020-06-11 00:00:00 15.6 0 Calma 8 Norte 0.4 -- -- 86
2020-06-10 23:00:00 16.2 2 Nordeste 6 Norte 0 -- -- 82
2020-06-10 22:00:00 16.9 2 Nordeste 6 Nordeste 0 -- -- 78
2020-06-10 21:00:00 18 0 Calma 14 Sudoeste 0 -- -- 73
2020-06-10 20:00:00 18.9 8 Oeste 12 Oeste 0 -- -- 68
2020-06-10 19:00:00 19.4 8 Oeste 17 Sudoeste 0 -- -- 64
2020-06-10 18:00:00 20.6 9 Sur 18 Sudoeste 0 -- -- 58
2020-06-10 17:00:00 19.3 12 Sudoeste 27 Sur 0 -- -- 68
2020-06-10 16:00:00 19.3 16 Sur 25 Sur 0 -- -- 60
2020-06-10 15:00:00 20.6 9 Sudoeste 27 Nordeste 0 -- -- 57
2020-06-10 14:00:00 22.4 11 Norte 31 Norte 0 -- -- 43
2020-06-10 13:00:00 23.2 19 Norte 31 Norte 0 -- -- 41
2020-06-10 12:00:00 21.9 12 Noroeste 32 Noroeste 0 -- -- 49
2020-06-10 11:00:00 20.2 14 Noroeste 27 Noroeste 0 -- -- 52
2020-06-10 10:00:00 20 14 Norte 26 Norte 0 -- -- 52
2020-06-10 09:00:00 18.8 15 Noroeste 26 Noroeste 0 -- -- 54
2020-06-10 08:00:00 16 8 Oeste 23 Norte 0 -- -- 63
2020-06-10 07:00:00 16.8 3 Nordeste 32 Noroeste 0 -- -- 56
2020-06-10 06:00:00 17.1 14 Norte 35 Norte 0 -- -- 54
2020-06-10 05:00:00 16.9 11 Norte 31 Norte 0 -- -- 54
2020-06-10 04:00:00 15.8 8 Oeste 26 Norte 0 -- -- 58
2020-06-10 03:00:00 17.5 13 Noroeste 32 Noroeste 0 -- -- 49
2020-06-10 02:00:00 17.5 18 Norte 42 Norte 0 -- -- 48
2020-06-10 01:00:00 17.9 22 Norte 44 Norte 0 -- -- 47
2020-06-10 00:00:00 17.8 21 Norte 51 Noroeste 0 -- -- 49
2020-06-09 23:00:00 17.8 24 Norte 50 Norte 0 -- -- 50
2020-06-09 22:00:00 17.9 25 Norte 42 Noroeste 0 -- -- 53
2020-06-09 21:00:00 18.3 13 Norte 31 Nordeste 0 -- -- 54
2020-06-09 20:00:00 20 17 Norte 40 Norte 0 -- -- 48
2020-06-09 19:00:00 21.2 18 Norte 38 Norte 0 -- -- 45
2020-06-09 18:00:00 21.8 21 Norte 37 Noroeste 0 -- -- 44
2020-06-09 17:00:00 21.5 9 Noroeste 38 Noroeste 0 -- -- 45
2020-06-09 16:00:00 22.1 18 Norte 33 Norte 0 -- -- 48
2020-06-09 15:00:00 21.5 18 Noroeste 45 Norte 0 -- -- 45
2020-06-09 14:00:00 19.8 22 Norte 45 Norte 0 -- -- 51
2020-06-09 13:00:00 18.6 22 Norte 44 Norte 0 -- -- 51
2020-06-09 12:00:00 17.8 18 Norte 42 Noroeste 0 -- -- 56
2020-06-09 11:00:00 18 22 Norte 49 Norte 0 -- -- 55
2020-06-09 10:00:00 17 22 Norte 53 Norte 0 -- -- 59
2020-06-09 09:00:00 16.4 22 Norte 60 Norte 0 -- -- 61
2020-06-09 08:00:00 17 28 Norte 50 Noroeste 0 -- -- 57
2020-06-09 07:00:00 16.9 22 Norte 43 Norte 0 -- -- 54
2020-06-09 06:00:00 16.5 16 Norte 42 Norte 0 -- -- 55
2020-06-09 05:00:00 16.3 19 Norte 37 Norte 0 -- -- 55
2020-06-09 04:00:00 15.9 14 Norte 36 Norte 0 -- -- 58
2020-06-09 03:00:00 16.4 21 Norte 42 Norte 0 -- -- 55
2020-06-09 02:00:00 16.7 18 Norte 37 Norte 0 -- -- 54
2020-06-09 01:00:00 16.9 24 Noroeste 44 Noroeste 0 -- -- 54
2020-06-09 00:00:00 17.3 17 Norte 35 Noroeste 0 -- -- 55